Time;durP1;ratioP1;P1;durP2;ratioP2;P2;SDS_P1;SDS_P2;PMS_P1;PMS_P2;Temp;Humidity;BMP_temperature;BMP_pressure;BME280_temperature;BME280_humidity;BME280_pressure;Samples;Min_cycle;Max_cycle;Signal;HPM_P1;HPM_P2
2022/06/29 00:00:11;;;;;;;1.93;1.60;;;;;;;17.35;58.20;101046.00;4991335;28;20635;-82
2022/06/29 00:02:37;;;;;;;2.73;1.90;;;;;;;17.33;58.29;101040.72;4983211;28;20268;-83
2022/06/29 00:05:05;;;;;;;1.70;1.60;;;;;;;17.31;58.35;101037.31;4988032;28;20212;-82
2022/06/29 00:07:32;;;;;;;3.27;1.60;;;;;;;17.28;58.45;101032.19;4991576;28;20196;-82
2022/06/29 00:10:00;;;;;;;1.67;1.53;;;;;;;17.25;58.40;101032.44;4987433;28;20223;-83
2022/06/29 00:12:26;;;;;;;2.67;1.80;;;;;;;17.21;58.53;101035.50;4989674;28;20216;-83
2022/06/29 00:14:55;;;;;;;3.43;1.47;;;;;;;17.14;58.21;101035.19;4985066;28;20207;-83
2022/06/29 00:17:22;;;;;;;2.17;1.70;;;;;;;17.07;58.05;101036.69;4983835;28;20231;-83
2022/06/29 00:19:48;;;;;;;2.83;1.70;;;;;;;16.97;58.53;101041.16;4981924;28;20297;-83
2022/06/29 00:22:15;;;;;;;2.10;1.67;;;;;;;16.87;58.54;101048.25;4983769;28;20209;-84
2022/06/29 00:24:42;;;;;;;3.47;2.00;;;;;;;16.82;58.98;101045.13;4980834;28;20210;-84
2022/06/29 00:27:10;;;;;;;2.83;1.77;;;;;;;16.78;58.80;101051.75;4984674;28;20237;-83
2022/06/29 00:29:37;;;;;;;2.00;1.50;;;;;;;16.71;58.77;101045.16;4986047;28;20218;-84
2022/06/29 00:32:04;;;;;;;1.80;1.70;;;;;;;16.65;58.97;101043.84;4982366;28;20337;-84
2022/06/29 00:34:30;;;;;;;1.80;1.67;;;;;;;16.60;59.19;101046.88;4984851;28;20582;-83
2022/06/29 00:36:57;;;;;;;2.33;1.83;;;;;;;16.59;59.79;101044.31;4986470;28;20260;-83
2022/06/29 00:39:23;;;;;;;2.40;1.70;;;;;;;16.57;59.87;101040.88;4983240;28;20213;-83
2022/06/29 00:41:50;;;;;;;4.30;1.70;;;;;;;16.55;60.08;101032.09;4986137;28;20205;-83
2022/06/29 00:44:20;;;;;;;2.97;1.70;;;;;;;16.52;59.88;101035.00;4991889;28;20208;-83
2022/06/29 00:46:49;;;;;;;3.83;1.93;;;;;;;16.46;59.96;101036.41;4982561;28;20237;-83
2022/06/29 00:49:16;;;;;;;3.93;1.77;;;;;;;16.42;60.07;101034.06;4987445;28;20201;-84
2022/06/29 00:51:46;;;;;;;4.10;1.90;;;;;;;16.39;60.02;101028.94;4989454;28;20574;-82
2022/06/29 00:54:16;;;;;;;1.93;1.50;;;;;;;16.32;59.96;101026.75;4992349;28;20217;-84
2022/06/29 00:56:43;;;;;;;1.53;1.43;;;;;;;16.28;59.92;101035.22;4990970;28;20224;-83
2022/06/29 00:59:13;;;;;;;3.17;1.83;;;;;;;16.22;59.84;101031.16;4987407;28;20323;-83
2022/06/29 01:01:42;;;;;;;1.70;1.60;;;;;;;16.19;60.13;101025.19;4987186;28;20292;-82
2022/06/29 01:04:09;;;;;;;1.93;1.63;;;;;;;16.16;60.17;101025.44;4986525;28;20219;-82
2022/06/29 01:06:36;;;;;;;2.87;1.70;;;;;;;16.11;60.36;101020.44;4983552;28;20283;-82
2022/06/29 01:09:03;;;;;;;2.97;2.07;;;;;;;16.08;60.40;101020.69;4989341;28;20299;-83
2022/06/29 01:11:30;;;;;;;2.80;1.97;;;;;;;16.07;60.43;101028.88;4987406;28;20200;-83
2022/06/29 01:13:57;;;;;;;1.93;1.80;;;;;;;16.04;60.65;101018.38;4986031;28;20314;-83
2022/06/29 01:16:24;;;;;;;2.63;1.70;;;;;;;16.00;60.58;101014.22;4982752;28;20795;-83
2022/06/29 01:18:52;;;;;;;2.90;1.90;;;;;;;15.95;60.82;101012.72;4983660;28;20641;-83
2022/06/29 01:21:20;;;;;;;1.70;1.60;;;;;;;15.93;61.13;101019.22;4987063;28;20914;-83
2022/06/29 01:23:48;;;;;;;2.17;1.80;;;;;;;15.87;61.21;101011.66;4985328;28;20208;-83
2022/06/29 01:26:15;;;;;;;1.70;1.43;;;;;;;15.82;61.06;101009.31;4989307;28;20231;-83
2022/06/29 01:28:46;;;;;;;1.80;1.70;;;;;;;15.80;61.48;101002.38;4988569;28;20206;-83
2022/06/29 01:31:13;;;;;;;3.13;1.83;;;;;;;15.76;61.50;101000.91;4996754;28;20216;-83
2022/06/29 01:33:40;;;;;;;3.10;2.03;;;;;;;15.73;61.47;100995.78;4991221;28;20210;-83
2022/06/29 01:36:07;;;;;;;1.97;1.67;;;;;;;15.69;61.63;100992.50;4991240;28;20238;-83
2022/06/29 01:38:36;;;;;;;3.37;1.80;;;;;;;15.61;61.72;100993.06;4983791;28;20227;-82
2022/06/29 01:41:04;;;;;;;2.30;2.10;;;;;;;15.55;62.00;100988.22;4987984;28;20211;-83
2022/06/29 01:43:31;;;;;;;3.47;1.97;;;;;;;15.47;62.17;100993.28;4983058;28;20219;-84
2022/06/29 01:45:57;;;;;;;2.10;1.90;;;;;;;15.42;62.82;100989.25;4989586;28;20227;-84
2022/06/29 01:48:24;;;;;;;4.93;2.40;;;;;;;15.38;63.05;100998.53;4982114;28;20197;-84
2022/06/29 01:50:50;;;;;;;2.27;2.00;;;;;;;15.35;63.86;100990.72;4985299;28;20211;-84
2022/06/29 01:53:17;;;;;;;1.97;1.87;;;;;;;15.33;64.26;100987.28;4988328;28;20219;-84
2022/06/29 01:55:44;;;;;;;2.10;1.90;;;;;;;15.31;64.13;100986.56;4988808;28;20327;-84
2022/06/29 01:58:12;;;;;;;2.70;2.50;;;;;;;15.32;64.72;100985.56;4986187;28;20231;-83
2022/06/29 02:00:39;;;;;;;3.30;2.47;;;;;;;15.29;64.86;100982.16;4990208;28;20215;-83
2022/06/29 02:03:05;;;;;;;4.67;2.60;;;;;;;15.25;65.22;100991.41;4993023;28;20219;-83
2022/06/29 02:05:32;;;;;;;2.90;2.60;;;;;;;15.19;65.53;100977.63;4988581;28;20225;-83
2022/06/29 02:07:58;;;;;;;2.70;2.50;;;;;;;15.15;65.99;100981.53;4990904;28;20286;-83
2022/06/29 02:10:25;;;;;;;3.40;2.93;;;;;;;15.11;66.35;100980.91;4991458;28;20207;-83
2022/06/29 02:12:52;;;;;;;3.77;2.80;;;;;;;15.10;66.79;100983.69;4984708;28;20579;-83
2022/06/29 02:15:20;;;;;;;2.73;2.53;;;;;;;15.09;67.49;100979.28;4985504;28;20230;-83
2022/06/29 02:17:46;;;;;;;3.80;2.77;;;;;;;15.11;67.69;100980.03;4995675;28;20227;-83
2022/06/29 02:20:13;;;;;;;2.80;2.37;;;;;;;15.12;67.81;100974.56;4995927;28;20221;-82
2022/06/29 02:22:40;;;;;;;2.63;2.43;;;;;;;15.14;67.85;100977.13;5002716;28;20234;-82
2022/06/29 02:25:08;;;;;;;2.60;2.40;;;;;;;15.13;68.01;100970.91;4992154;28;20327;-82
2022/06/29 02:27:38;;;;;;;2.60;2.20;;;;;;;15.15;67.76;100973.47;4997475;28;20203;-83
2022/06/29 02:30:06;;;;;;;3.10;2.00;;;;;;;15.15;67.49;100968.97;4995874;28;20574;-83
2022/06/29 02:35:32;;;;;;;2.73;2.10;;;;;;;14.94;66.03;100958.06;4948957;28;20215;-84
2022/06/29 02:37:59;;;;;;;2.80;2.07;;;;;;;14.86;65.61;100959.63;4957852;28;20776;-84
2022/06/29 02:40:25;;;;;;;2.77;1.90;;;;;;;14.73;65.23;100946.28;4977831;28;20235;-84
2022/06/29 02:42:52;;;;;;;2.30;2.10;;;;;;;14.66;65.65;100947.72;4997918;28;20222;-83
2022/06/29 02:45:18;;;;;;;2.73;2.10;;;;;;;14.63;66.31;100947.09;4991304;28;20235;-83
2022/06/29 02:47:46;;;;;;;2.30;2.00;;;;;;;14.59;66.34;100952.69;4999744;28;20203;-82
2022/06/29 02:50:13;;;;;;;2.60;2.10;;;;;;;14.59;66.10;100955.38;4996184;28;20214;-82
2022/06/29 02:52:39;;;;;;;2.10;1.93;;;;;;;14.59;66.54;100952.69;4995454;28;20292;-83
2022/06/29 02:55:06;;;;;;;3.07;2.33;;;;;;;14.60;66.55;100958.91;4993454;28;20207;-84
2022/06/29 02:57:33;;;;;;;2.60;2.40;;;;;;;14.60;66.71;100964.25;4990861;28;20223;-82
2022/06/29 02:59:59;;;;;;;2.40;1.93;;;;;;;14.59;66.36;100954.50;4997489;28;20204;-83
2022/06/29 03:02:26;;;;;;;3.40;2.57;;;;;;;14.53;66.12;100949.59;4996340;28;20206;-83
2022/06/29 03:04:54;;;;;;;3.80;1.77;;;;;;;14.47;66.53;100950.94;4992155;28;20206;-85
2022/06/29 03:07:20;;;;;;;2.10;1.90;;;;;;;14.42;66.61;100949.56;4996010;28;20203;-84
2022/06/29 03:09:47;;;;;;;2.40;1.93;;;;;;;14.34;66.39;100955.44;4998176;28;20199;-82
2022/06/29 03:12:13;;;;;;;3.10;2.30;;;;;;;14.26;67.25;100947.13;4994117;28;20229;-83
2022/06/29 03:14:40;;;;;;;3.00;2.07;;;;;;;14.22;67.83;100941.13;4999783;28;20208;-83
2022/06/29 03:17:06;;;;;;;4.30;2.50;;;;;;;14.23;68.58;100944.69;4994651;28;20649;-83
2022/06/29 03:19:33;;;;;;;2.37;2.20;;;;;;;14.24;68.77;100946.38;5007472;28;20233;-83
2022/06/29 03:22:01;;;;;;;4.13;2.73;;;;;;;14.25;68.93;100945.41;4998145;28;20215;-84
2022/06/29 03:24:27;;;;;;;3.13;2.50;;;;;;;14.24;69.24;100939.22;4992713;28;20208;-84
2022/06/29 03:26:54;;;;;;;4.40;2.20;;;;;;;14.26;69.44;100941.78;4990776;28;20319;-83
2022/06/29 03:29:21;;;;;;;3.23;2.37;;;;;;;14.26;70.14;100933.75;4990678;28;20208;-83
2022/06/29 03:31:47;;;;;;;2.97;2.30;;;;;;;14.27;69.77;100932.78;4995644;28;20730;-82
2022/06/29 03:34:14;;;;;;;2.60;2.40;;;;;;;14.27;70.10;100934.59;4997785;28;20209;-82
2022/06/29 03:36:41;;;;;;;2.80;2.60;;;;;;;14.27;70.36;100937.28;4986054;28;20690;-83
2022/06/29 03:39:08;;;;;;;4.23;2.30;;;;;;;14.26;69.99;100939.09;4989403;28;20229;-82
2022/06/29 03:41:35;;;;;;;4.90;2.50;;;;;;;14.23;70.03;100933.97;4988607;28;20203;-83
2022/06/29 03:44:01;;;;;;;3.90;2.67;;;;;;;14.21;70.89;100931.41;4993423;28;20854;-83
2022/06/29 03:46:28;;;;;;;2.67;2.47;;;;;;;14.23;70.85;100945.53;4990946;28;20231;-82
2022/06/29 03:48:55;;;;;;;3.47;2.60;;;;;;;14.22;70.54;100942.97;4990230;28;20200;-84
2022/06/29 03:51:21;;;;;;;3.57;2.30;;;;;;;14.18;70.62;100942.31;4987053;28;20211;-82
2022/06/29 03:53:48;;;;;;;3.07;2.10;;;;;;;14.15;70.67;100958.63;4983198;28;20216;-83
2022/06/29 03:56:16;;;;;;;2.50;2.30;;;;;;;14.09;71.13;100952.88;4988800;28;21180;-83
2022/06/29 03:58:42;;;;;;;4.30;2.20;;;;;;;14.07;71.47;100952.13;4988751;28;20242;-83
2022/06/29 04:01:09;;;;;;;2.60;2.40;;;;;;;14.05;71.12;100946.88;4992691;28;20207;-85
2022/06/29 04:03:35;;;;;;;3.40;2.30;;;;;;;14.07;71.86;100946.78;4981265;28;20212;-83
2022/06/29 04:06:02;;;;;;;4.87;2.43;;;;;;;14.09;72.33;100945.69;4989088;28;20228;-83
2022/06/29 04:08:28;;;;;;;3.47;2.33;;;;;;;14.14;72.41;100953.41;4992365;28;20206;-84
2022/06/29 04:10:55;;;;;;;2.60;2.40;;;;;;;14.17;71.97;100948.66;4995481;28;20204;-83
2022/06/29 04:13:23;;;;;;;3.67;2.53;;;;;;;14.21;72.41;100965.34;4993503;28;20207;-83
2022/06/29 04:15:50;;;;;;;2.97;2.50;;;;;;;14.22;72.02;100959.03;4997324;28;20226;-83
2022/06/29 04:18:17;;;;;;;2.27;2.03;;;;;;;14.21;72.08;100963.53;4997509;28;20203;-83
2022/06/29 04:23:27;;;;;;;3.77;2.40;;;;;;;14.23;72.89;100958.06;4985265;28;20254;-83
2022/06/29 04:25:54;;;;;;;3.00;2.73;;;;;;;14.28;72.87;100955.06;4985178;28;20231;-83
2022/06/29 04:28:21;;;;;;;8.13;2.70;;;;;;;14.31;73.14;100941.44;4989681;28;20208;-83
2022/06/29 04:30:49;;;;;;;3.87;3.10;;;;;;;14.36;73.23;100945.47;4992358;28;20561;-83
2022/06/29 04:33:15;;;;;;;3.13;2.83;;;;;;;14.43;73.30;100946.78;4988157;28;20298;-83
2022/06/29 04:35:42;;;;;;;4.90;3.00;;;;;;;14.48;73.12;100947.28;4988712;28;20223;-84
2022/06/29 04:38:09;;;;;;;3.70;3.40;;;;;;;14.53;73.34;100954.97;4982322;28;20228;-84
2022/06/29 04:40:35;;;;;;;3.40;2.93;;;;;;;14.56;73.03;100952.91;4988800;28;20216;-84
2022/06/29 04:43:02;;;;;;;3.77;3.10;;;;;;;14.59;73.22;100952.69;4989432;28;20219;-83
2022/06/29 04:48:14;;;;;;;3.47;3.17;;;;;;;14.65;73.74;100942.47;4989039;28;20323;-84
2022/06/29 04:50:40;;;;;;;5.30;3.67;;;;;;;14.70;73.68;100942.97;4988624;28;20200;-84
2022/06/29 04:53:07;;;;;;;4.57;3.50;;;;;;;14.72;74.04;100941.88;4982501;28;20224;-84
2022/06/29 04:55:33;;;;;;;5.37;3.70;;;;;;;14.77;73.80;100936.19;4995841;28;20309;-84
2022/06/29 04:58:00;;;;;;;8.27;3.70;;;;;;;14.81;74.08;100940.34;4989109;28;20199;-83
2022/06/29 05:00:27;;;;;;;7.27;3.83;;;;;;;14.82;74.07;100937.53;4986588;28;20816;-83
2022/06/29 05:02:53;;;;;;;5.30;4.10;;;;;;;14.88;74.30;100946.94;4993178;28;20651;-83
2022/06/29 05:05:21;;;;;;;5.63;3.90;;;;;;;14.91;74.22;100942.19;5001895;28;20231;-83
2022/06/29 05:07:48;;;;;;;5.20;4.13;;;;;;;14.96;73.92;100941.84;5001665;28;20847;-84
2022/06/29 05:10:15;;;;;;;7.73;4.60;;;;;;;15.01;74.20;100945.03;5000955;28;20250;-83
2022/06/29 05:12:42;;;;;;;6.23;4.63;;;;;;;15.05;74.25;100945.66;4982368;28;20291;-83
2022/06/29 05:15:09;;;;;;;5.50;4.80;;;;;;;15.11;74.01;100943.34;4990859;28;20207;-83
2022/06/29 05:17:37;;;;;;;4.13;3.80;;;;;;;15.19;74.45;100950.81;4988083;28;20199;-82
2022/06/29 05:20:05;;;;;;;4.47;3.60;;;;;;;15.27;74.28;100943.84;4989201;28;20236;-82
2022/06/29 05:22:33;;;;;;;5.17;3.63;;;;;;;15.36;74.35;100944.13;4990455;28;20690;-82
2022/06/29 05:24:59;;;;;;;5.00;3.67;;;;;;;15.44;73.86;100947.03;4994333;28;20587;-81
2022/06/29 05:27:26;;;;;;;4.17;3.50;;;;;;;15.51;72.80;100935.69;4991820;28;20216;-83
2022/06/29 05:29:52;;;;;;;6.53;3.30;;;;;;;15.56;72.29;100936.22;5001386;28;20227;-83
2022/06/29 05:32:19;;;;;;;3.40;3.00;;;;;;;15.68;72.20;100929.03;4991742;28;20216;-83
2022/06/29 05:34:45;;;;;;;5.13;3.47;;;;;;;15.82;71.99;100927.91;4989361;28;20211;-83
2022/06/29 05:37:12;;;;;;;4.10;3.07;;;;;;;15.94;71.43;100929.63;4991557;28;20721;-82
2022/06/29 05:39:42;;;;;;;4.20;3.10;;;;;;;16.04;70.48;100919.81;4986276;28;20233;-83
2022/06/29 05:42:08;;;;;;;6.50;3.43;;;;;;;16.14;69.95;100918.06;4991757;28;20649;-83
2022/06/29 05:44:35;;;;;;;5.17;3.17;;;;;;;16.26;70.11;100921.59;4987617;28;20204;-82
2022/06/29 05:47:03;;;;;;;8.00;2.93;;;;;;;16.44;70.01;100922.75;4986945;28;20883;-82
2022/06/29 05:49:30;;;;;;;4.53;3.10;;;;;;;16.60;69.55;100925.84;4994412;28;20209;-83
2022/06/29 05:51:56;;;;;;;4.23;3.27;;;;;;;16.78;69.55;100920.78;4992896;28;20297;-82
2022/06/29 05:54:23;;;;;;;3.73;3.00;;;;;;;16.97;68.87;100928.16;4996437;28;20223;-82
2022/06/29 05:56:51;;;;;;;7.87;2.93;;;;;;;17.14;68.07;100919.47;4993638;28;20224;-83
2022/06/29 05:59:17;;;;;;;7.67;3.00;;;;;;;17.30;67.47;100925.22;4995805;28;20235;-82
2022/06/29 06:01:44;;;;;;;4.57;2.77;;;;;;;17.48;67.08;100921.91;4988459;28;20218;-82
2022/06/29 06:04:10;;;;;;;7.40;2.90;;;;;;;17.67;66.67;100925.56;5006046;28;20545;-83
2022/06/29 06:06:37;;;;;;;3.30;2.57;;;;;;;17.87;66.26;100917.56;4992133;28;20234;-83
2022/06/29 06:09:03;;;;;;;3.40;2.50;;;;;;;18.04;65.09;100914.19;4992855;28;20216;-82
2022/06/29 06:11:30;;;;;;;6.83;3.43;;;;;;;18.22;64.15;100903.59;4990466;28;20205;-83
2022/06/29 06:13:58;;;;;;;33.40;5.77;;;;;;;18.38;63.14;100911.97;4992470;28;20596;-82
2022/06/29 06:16:24;;;;;;;67.00;10.03;;;;;;;18.56;62.94;100902.19;4998144;28;20227;-82
2022/06/29 06:18:51;;;;;;;46.67;7.23;;;;;;;18.71;61.36;100897.22;4992220;28;20204;-83
2022/06/29 06:21:17;;;;;;;30.37;5.70;;;;;;;18.81;60.03;100898.06;4993279;28;20215;-82
2022/06/29 06:23:44;;;;;;;58.17;7.03;;;;;;;18.95;59.39;100905.72;5001242;28;20545;-82
2022/06/29 06:26:10;;;;;;;112.80;14.03;;;;;;;19.11;59.00;100905.13;4996230;28;20226;-82
2022/06/29 06:28:37;;;;;;;90.73;11.57;;;;;;;19.26;59.18;100913.59;4990697;28;20210;-82
2022/06/29 06:31:05;;;;;;;142.23;17.50;;;;;;;19.41;59.45;100912.13;5005543;28;20296;-82
2022/06/29 06:33:31;;;;;;;19.27;5.20;;;;;;;19.57;58.87;100906.13;4991096;28;20216;-82
2022/06/29 06:35:58;;;;;;;3.97;2.80;;;;;;;19.71;58.72;100913.72;4990212;28;20247;-82
2022/06/29 06:38:24;;;;;;;3.47;2.60;;;;;;;19.79;57.79;100919.25;4989851;28;20204;-82
2022/06/29 06:43:34;;;;;;;4.07;3.10;;;;;;;19.97;58.25;100908.50;4988378;28;20218;-83
2022/06/29 06:46:01;;;;;;;3.97;2.80;;;;;;;20.09;58.34;100908.13;4988090;28;20225;-82
2022/06/29 06:48:29;;;;;;;3.77;3.07;;;;;;;20.27;58.42;100904.56;4980843;28;20205;-82
2022/06/29 06:50:55;;;;;;;3.47;2.93;;;;;;;20.44;57.75;100911.88;4984238;28;20207;-83
2022/06/29 06:53:22;;;;;;;3.83;2.50;;;;;;;20.56;57.83;100902.56;4984039;28;20207;-83
2022/06/29 06:55:49;;;;;;;3.17;2.60;;;;;;;20.69;57.54;100899.44;4986274;28;20226;-82
2022/06/29 06:58:15;;;;;;;3.53;2.53;;;;;;;20.79;57.45;100898.34;4979127;28;20209;-82
2022/06/29 07:00:43;;;;;;;2.97;2.67;;;;;;;20.88;57.19;100904.66;4981506;28;20229;-83
2022/06/29 07:03:09;;;;;;;2.77;2.57;;;;;;;20.96;57.38;100902.00;4987044;28;20210;-82
2022/06/29 07:05:38;;;;;;;3.20;2.90;;;;;;;21.09;57.53;100901.63;4988194;28;20229;-82
2022/06/29 07:08:05;;;;;;;5.30;2.90;;;;;;;21.28;57.71;100895.16;4985882;28;20212;-82
2022/06/29 07:10:32;;;;;;;4.88;3.03;;;;;;;21.45;57.08;100894.25;4988901;28;20199;-83
2022/06/29 07:12:58;;;;;;;4.70;3.30;;;;;;;21.62;56.05;100897.88;4985344;28;20233;-82
2022/06/29 07:15:25;;;;;;;6.82;3.42;;;;;;;21.73;55.35;100894.88;4984580;28;20237;-82
2022/06/29 07:17:52;;;;;;;3.17;2.88;;;;;;;21.87;55.56;100899.66;4983215;28;20204;-83
2022/06/29 07:20:18;;;;;;;7.38;3.53;;;;;;;22.04;55.48;100889.75;4988505;28;20226;-81
2022/06/29 07:22:47;;;;;;;6.85;3.15;;;;;;;22.24;55.41;100893.00;4981760;28;20203;-82
2022/06/29 07:25:13;;;;;;;4.97;2.97;;;;;;;22.43;55.17;100882.69;4986512;28;20283;-82
2022/06/29 07:27:40;;;;;;;4.50;3.00;;;;;;;22.66;54.67;100884.75;4980085;28;20211;-82
2022/06/29 07:30:07;;;;;;;3.30;3.00;;;;;;;22.82;54.04;100887.50;4984995;28;20207;-83
2022/06/29 07:32:34;;;;;;;5.80;2.92;;;;;;;23.02;54.02;100882.56;4988289;28;20222;-83
2022/06/29 07:35:00;;;;;;;2.90;2.65;;;;;;;23.19;53.19;100881.50;4983827;28;20218;-83
2022/06/29 07:37:28;;;;;;;7.28;3.22;;;;;;;23.30;52.85;100878.41;4984926;28;20212;-82
2022/06/29 07:39:55;;;;;;;3.83;2.80;;;;;;;23.44;52.30;100883.16;4989121;28;20322;-82
2022/06/29 07:42:22;;;;;;;3.60;2.88;;;;;;;23.52;52.29;100882.28;4983411;28;20207;-82
2022/06/29 07:44:48;;;;;;;2.80;2.60;;;;;;;23.61;51.70;100880.41;4984425;28;20210;-82
2022/06/29 07:47:15;;;;;;;2.95;2.67;;;;;;;23.73;52.05;100884.41;4988839;28;20223;-82
2022/06/29 07:49:41;;;;;;;4.82;3.17;;;;;;;23.83;51.78;100874.16;4981426;28;20206;-83
2022/06/29 07:52:09;;;;;;;2.85;2.65;;;;;;;23.93;51.93;100872.09;4984833;28;20215;-83
2022/06/29 07:54:35;;;;;;;3.33;2.67;;;;;;;24.05;52.48;100857.03;4983681;28;20221;-83
2022/06/29 07:57:03;;;;;;;433.15;60.00;;;;;;;24.18;52.09;100865.44;4987188;28;20229;-82
2022/06/29 07:59:30;;;;;;;5.05;3.60;;;;;;;24.31;51.78;100861.34;4981553;28;20233;-82
2022/06/29 08:01:56;;;;;;;16.58;4.82;;;;;;;24.40;51.65;100861.06;4986464;28;20538;-83
2022/06/29 08:04:23;;;;;;;4.80;3.13;;;;;;;24.53;51.71;100863.22;4988081;28;20214;-83
2022/06/29 08:06:49;;;;;;;16.13;4.00;;;;;;;24.60;51.51;100864.16;4987991;28;20601;-83
2022/06/29 08:09:16;;;;;;;6.43;3.15;;;;;;;24.67;51.59;100859.69;4992981;28;20203;-83
2022/06/29 08:11:42;;;;;;;5.57;3.45;;;;;;;24.66;50.78;100851.69;4988103;28;20217;-83
2022/06/29 08:14:10;;;;;;;2.85;2.60;;;;;;;24.67;50.05;100856.13;4986380;28;20217;-83
2022/06/29 08:16:37;;;;;;;3.00;2.40;;;;;;;24.61;49.32;100863.13;4986406;28;20243;-83
2022/06/29 08:19:03;;;;;;;15.13;3.15;;;;;;;24.60;50.33;100849.69;4987790;28;20233;-83
2022/06/29 08:21:30;;;;;;;21.65;4.07;;;;;;;24.66;50.49;100859.88;4985205;28;20235;-84
2022/06/29 08:23:56;;;;;;;13.85;3.75;;;;;;;24.71;50.12;100861.03;4987152;28;20204;-83
2022/06/29 08:26:23;;;;;;;5.35;2.80;;;;;;;24.79;50.35;100854.63;4986019;28;20229;-83
2022/06/29 08:28:49;;;;;;;4.68;2.60;;;;;;;24.89;50.37;100853.34;4987492;28;20210;-84
2022/06/29 08:31:17;;;;;;;9.25;2.40;;;;;;;24.96;49.27;100848.03;4993027;28;20208;-84
2022/06/29 08:33:45;;;;;;;2.85;2.30;;;;;;;25.06;49.76;100862.25;4983280;28;20210;-84
2022/06/29 08:36:12;;;;;;;4.75;2.30;;;;;;;25.12;49.24;100847.00;4988796;28;20238;-83
2022/06/29 08:38:39;;;;;;;2.55;2.40;;;;;;;25.12;48.50;100856.03;4983037;28;20645;-83
2022/06/29 08:41:06;;;;;;;3.28;2.20;;;;;;;25.16;48.98;100853.78;4986617;28;20243;-83
2022/06/29 08:43:33;;;;;;;3.28;2.40;;;;;;;25.20;48.44;100852.38;4986897;28;20212;-83
2022/06/29 08:45:59;;;;;;;3.38;2.50;;;;;;;25.20;48.09;100850.50;4985379;28;20311;-83
2022/06/29 08:48:28;;;;;;;2.63;2.42;;;;;;;25.22;49.18;100855.78;4987494;28;20206;-84
2022/06/29 08:50:55;;;;;;;3.30;2.58;;;;;;;25.24;49.50;100845.53;4984999;28;20600;-83
2022/06/29 08:53:24;;;;;;;10.75;3.10;;;;;;;25.29;48.52;100848.50;4987988;28;20215;-83
2022/06/29 08:55:52;;;;;;;3.55;2.60;;;;;;;25.30;49.00;100841.19;4987091;28;20375;-83
2022/06/29 08:58:20;;;;;;;3.30;3.00;;;;;;;25.37;49.64;100842.97;4979667;28;20211;-83
2022/06/29 09:00:49;;;;;;;3.97;2.90;;;;;;;25.47;49.91;100845.41;4982085;28;20230;-84
2022/06/29 09:03:18;;;;;;;3.65;3.13;;;;;;;25.54;49.15;100844.47;4984676;28;20282;-83
2022/06/29 09:05:48;;;;;;;3.67;2.78;;;;;;;25.60;49.67;100840.16;4986517;28;20313;-83
2022/06/29 09:08:15;;;;;;;4.60;3.20;;;;;;;25.65;49.29;100834.13;4988033;28;20673;-83
2022/06/29 09:10:42;;;;;;;3.35;3.05;;;;;;;25.69;48.78;100851.81;4986752;28;20587;-83
2022/06/29 09:13:08;;;;;;;3.85;3.10;;;;;;;25.70;49.24;100843.44;4990057;28;20291;-84
2022/06/29 09:15:38;;;;;;;4.20;3.28;;;;;;;25.72;48.76;100837.81;4987774;28;21073;-84
2022/06/29 09:18:23;;;;;;;41.13;6.00;;;;;;;25.74;48.58;100841.19;4991503;28;20215;-84
2022/06/29 09:20:54;;;;;;;3.58;3.28;;;;;;;25.77;48.53;100844.38;4985730;28;20360;-83
2022/06/29 09:23:20;;;;;;;4.60;3.28;;;;;;;25.84;48.46;100841.72;4985287;28;20203;-83
2022/06/29 09:25:47;;;;;;;4.43;3.38;;;;;;;25.85;48.54;100841.53;4991053;28;20226;-84
2022/06/29 09:28:21;;;;;;;4.00;3.70;;;;;;;25.89;47.94;100825.63;4987736;28;20211;-83
2022/06/29 09:30:48;;;;;;;4.20;3.20;;;;;;;25.92;48.46;100830.69;4984885;28;20600;-83
2022/06/29 09:33:14;;;;;;;5.10;3.80;;;;;;;25.91;47.30;100842.66;4984860;28;20217;-83
2022/06/29 09:35:42;;;;;;;3.83;3.40;;;;;;;25.86;47.81;100834.19;4988262;28;20220;-84
2022/06/29 09:38:24;;;;;;;4.45;4.05;;;;;;;25.84;48.51;100839.00;4984626;28;20203;-84
2022/06/29 09:41:02;;;;;;;4.30;3.90;;;;;;;25.80;48.20;100837.66;4986123;28;20693;-83
2022/06/29 09:43:30;;;;;;;5.20;4.22;;;;;;;25.77;48.92;100841.66;4991279;28;20206;-83
2022/06/29 09:45:56;;;;;;;4.93;3.70;;;;;;;25.74;48.48;100833.00;4983901;28;20230;-83
2022/06/29 09:48:25;;;;;;;3.78;3.42;;;;;;;25.70;48.98;100839.88;4993363;28;20195;-83
2022/06/29 09:50:52;;;;;;;4.18;3.67;;;;;;;25.68;48.76;100826.41;4992318;28;20200;-83
2022/06/29 09:53:24;;;;;;;4.07;3.67;;;;;;;25.69;48.73;100828.13;4983976;28;20746;-83
2022/06/29 09:55:54;;;;;;;4.10;3.80;;;;;;;25.73;48.85;100839.50;4993381;28;20227;-83
2022/06/29 09:58:42;;;;;;;4.32;3.92;;;;;;;25.68;47.93;100839.22;4989552;28;20651;-83
2022/06/29 10:03:55;;;;;;;4.53;4.07;;;;;;;25.66;49.00;100839.41;4986341;28;20215;-83
2022/06/29 10:06:22;;;;;;;4.70;4.30;;;;;;;25.64;48.78;100825.09;4989578;28;20218;-83
2022/06/29 10:08:49;;;;;;;4.80;4.40;;;;;;;25.63;49.11;100822.56;4988209;28;20208;-84
2022/06/29 10:14:26;;;;;;;10.10;4.63;;;;;;;25.57;49.72;100829.63;4992760;28;21468;-83
2022/06/29 10:17:01;;;;;;;4.80;4.32;;;;;;;25.50;49.24;100826.78;4994391;28;20653;-83
2022/06/29 10:19:41;;;;;;;5.38;4.22;;;;;;;25.43;49.40;100823.16;4994900;28;20685;-85
2022/06/29 10:22:08;;;;;;;4.47;4.07;;;;;;;25.42;49.97;100820.63;5005553;28;20282;-84
2022/06/29 10:24:37;;;;;;;4.68;4.07;;;;;;;25.42;49.43;100821.47;4995109;28;20215;-84
2022/06/29 10:27:08;;;;;;;4.38;4.07;;;;;;;25.43;49.86;100827.75;5000609;28;20246;-84
2022/06/29 10:29:36;;;;;;;4.50;4.15;;;;;;;25.48;49.69;100826.13;5002127;28;20211;-84
2022/06/29 10:32:17;;;;;;;4.63;4.22;;;;;;;25.53;49.79;100820.97;5000579;28;20275;-84
2022/06/29 10:37:30;;;;;;;6.22;3.67;;;;;;;25.56;49.44;100822.47;4993098;28;20282;-83
2022/06/29 10:40:01;;;;;;;4.28;3.88;;;;;;;25.56;49.27;100833.38;4990605;28;20207;-83
2022/06/29 10:45:21;;;;;;;4.13;3.75;;;;;;;25.46;49.20;100821.91;4992767;28;20254;-83
2022/06/29 10:48:16;;;;;;;4.63;3.58;;;;;;;25.44;49.98;100821.28;4986636;28;20207;-83
2022/06/29 10:50:45;;;;;;;4.53;4.07;;;;;;;25.40;49.65;100819.94;4992816;28;20211;-83
2022/06/29 10:53:13;;;;;;;4.53;4.22;;;;;;;25.35;49.54;100823.22;4992797;28;20315;-84
2022/06/29 10:55:41;;;;;;;4.07;3.67;;;;;;;25.30;50.00;100813.91;4992921;28;20229;-84
2022/06/29 10:58:09;;;;;;;3.45;3.25;;;;;;;25.27;49.96;100813.25;4990722;28;20602;-82
2022/06/29 11:00:39;;;;;;;3.67;3.08;;;;;;;25.24;48.79;100805.50;4990287;28;20229;-83
2022/06/29 11:03:14;;;;;;;3.35;3.00;;;;;;;25.18;48.52;100805.38;4988195;28;20247;-84
2022/06/29 11:13:59;;;;;;;3.92;3.53;;;;;;;25.18;50.45;100810.84;4985887;28;20294;-84
2022/06/29 11:16:30;;;;;;;5.05;3.05;;;;;;;25.17;50.23;100804.53;4987346;28;20648;-83
2022/06/29 11:18:58;;;;;;;3.28;3.00;;;;;;;25.15;50.36;100808.47;4987224;28;20204;-83
2022/06/29 11:21:25;;;;;;;3.15;2.85;;;;;;;25.14;50.30;100799.47;4990556;28;20233;-83
2022/06/29 11:24:02;;;;;;;3.05;2.83;;;;;;;25.14;49.75;100806.78;4985488;28;20206;-82
2022/06/29 11:26:29;;;;;;;3.97;3.17;;;;;;;25.14;49.35;100812.25;4987766;28;20273;-83
2022/06/29 11:28:57;;;;;;;3.10;2.90;;;;;;;25.09;49.28;100801.03;4989502;28;20213;-83
2022/06/29 11:31:26;;;;;;;2.90;2.60;;;;;;;25.05;48.98;100808.78;4986560;28;20203;-82
2022/06/29 11:33:54;;;;;;;3.10;2.90;;;;;;;25.00;49.22;100797.56;4991000;28;20219;-82
2022/06/29 11:36:22;;;;;;;3.70;3.45;;;;;;;24.96;50.06;100801.69;4996520;28;20237;-82
2022/06/29 11:38:51;;;;;;;3.60;3.30;;;;;;;24.97;50.69;100803.41;4989232;28;20251;-82
2022/06/29 11:41:20;;;;;;;3.28;3.03;;;;;;;24.98;51.27;100806.97;4991574;28;20227;-82
2022/06/29 11:43:58;;;;;;;3.28;3.08;;;;;;;24.97;51.41;100806.13;4988125;28;20298;-82
2022/06/29 11:46:27;;;;;;;3.03;2.83;;;;;;;25.01;51.34;100807.44;4984032;28;20240;-82
2022/06/29 11:51:48;;;;;;;3.80;2.30;;;;;;;24.99;51.01;100808.66;4982810;28;20719;-83
2022/06/29 11:54:15;;;;;;;2.50;1.98;;;;;;;25.03;50.11;100799.09;4984534;28;20297;-83
2022/06/29 11:56:44;;;;;;;3.55;2.13;;;;;;;25.10;50.53;100802.72;4979508;28;20232;-82
2022/06/29 11:59:15;;;;;;;2.97;2.67;;;;;;;25.19;49.26;100802.47;4989262;28;20213;-83